Froegrunn — LK2711 — position and weather

sailwx.info

Track history (hours):
 
Tides and Currents Weather Stations Pressure Air Temp Water Temp Dewpoint Dewpoint Depression Visibility Wind Speed Wind Dir Waves Ship Positions

Froegrunn

Last reported at 2018-Apr-12 04:27 UTC. Time now 2018-Jun-25 14:03 UTC.
Position N 66°23' E 012°02'.
Warning: this ship's position is months out of date.

Length 11 m.

Type: Fishing. MMSI: 257134420.

Date/timePositionNaut miles runAvg speedWind from/ knotsBaromVisibWave heightAir tempDewpointWater temp
2018-Apr-12 04:27N 66°23' E 012°02'3 5.9
2018-Apr-12 03:59N 66°26' E 012°04'3 6.0
2018-Apr-12 03:30N 66°29' E 012°05'1 1.6
2018-Apr-12 03:00N 66°30' E 012°05'0 0.0
2018-Apr-12 02:30N 66°30' E 012°05'0 0.0
2018-Apr-12 02:00N 66°30' E 012°05'0 0.0
2018-Apr-12 01:30N 66°30' E 012°05'0 0.0
2018-Apr-12 01:00N 66°30' E 012°05'0 0.0
2018-Apr-12 00:30N 66°30' E 012°05'0 0.0
2018-Apr-12 00:00N 66°30' E 012°05'0 0.0
2018-Apr-11 23:30N 66°30' E 012°05'0 0.0
2018-Apr-11 23:00N 66°30' E 012°05'0 0.0
2018-Apr-11 22:27N 66°30' E 012°05'0 0.0
2018-Apr-11 22:00N 66°30' E 012°05'0 0.0
2018-Apr-11 21:30N 66°30' E 012°05'0 0.0
2018-Apr-11 21:00N 66°30' E 012°05'0 0.0
2018-Apr-11 20:30N 66°30' E 012°05'0 0.0
2018-Apr-11 20:00N 66°30' E 012°05'0 0.0
2018-Apr-11 19:30N 66°30' E 012°05'0 0.0
2018-Apr-11 19:00N 66°30' E 012°05'0 0.0
2018-Apr-11 18:30N 66°30' E 012°05'0 0.0
2018-Apr-11 18:00N 66°30' E 012°05'0 0.0
2018-Apr-11 17:30N 66°30' E 012°05'0 0.0
2018-Apr-11 17:00N 66°30' E 012°05'0 0.0
2018-Apr-11 16:30N 66°30' E 012°05'0 0.0
2018-Apr-11 16:00N 66°30' E 012°05'0 0.0
2018-Apr-11 15:30N 66°30' E 012°05'0 0.0
2018-Apr-11 15:00N 66°30' E 012°05'0 0.0
2018-Apr-11 14:30N 66°30' E 012°05'0 0.0
2018-Apr-11 14:00N 66°30' E 012°05'0 0.2
2018-Apr-11 13:30N 66°30' E 012°05'0 0.0
2018-Apr-11 13:00N 66°30' E 012°05'2 4.6
2018-Apr-11 12:30N 66°28' E 012°01'2 3.6
2018-Apr-11 12:00N 66°27' E 011°57'1 2.7
2018-Apr-11 11:30N 66°28' E 011°54'1 1.5
2018-Apr-11 10:59N 66°28' E 011°53'0 0.2
2018-Apr-11 10:30N 66°28' E 011°52'1 1.7
2018-Apr-11 10:00N 66°28' E 011°55'0 0.9
2018-Apr-11 09:30N 66°29' E 011°55'3 4.8
2018-Apr-11 08:59N 66°26' E 011°57'0 0.1
2018-Apr-11 08:29N 66°26' E 011°56'1 3.0
2018-Apr-11 08:00N 66°26' E 011°53'1 0.3
2018-Apr-11 06:10N 66°26' E 011°52'1 2.9
2018-Apr-11 05:49N 66°27' E 011°53'1 2.4
2018-Apr-11 05:27N 66°28' E 011°54'0 1.0
2018-Apr-11 04:59N 66°27' E 011°54'0 0.7
2018-Apr-11 04:30N 66°27' E 011°54'1 2.5
2018-Apr-11 04:00N 66°27' E 011°58'3 6.1
2018-Apr-11 03:29N 66°29' E 012°04'1 1.6
2018-Apr-11 03:00N 66°30' E 012°05'0 0.0
2018-Apr-11 02:30N 66°30' E 012°05'0 0.0
2018-Apr-11 02:00N 66°30' E 012°05'0 0.0
2018-Apr-11 01:30N 66°30' E 012°05'0 0.0
2018-Apr-11 01:00N 66°30' E 012°05'0 0.0
2018-Apr-11 00:30N 66°30' E 012°05'0 0.0
2018-Apr-11 00:00N 66°30' E 012°05'0 0.0
2018-Apr-10 23:30N 66°30' E 012°05'0 0.0
2018-Apr-10 23:00N 66°30' E 012°05'0 0.0
2018-Apr-10 22:30N 66°30' E 012°05'0 0.0
2018-Apr-10 22:00N 66°30' E 012°05'0 0.0
2018-Apr-10 21:30N 66°30' E 012°05'0 0.0
2018-Apr-10 21:00N 66°30' E 012°05'0 0.0
2018-Apr-10 20:30N 66°30' E 012°05'0 0.0
2018-Apr-10 20:00N 66°30' E 012°05'0 0.0
2018-Apr-10 19:30N 66°30' E 012°05'0 0.0
2018-Apr-10 19:00N 66°30' E 012°05'0 0.0
2018-Apr-10 18:30N 66°30' E 012°05'0 0.0
2018-Apr-10 18:00N 66°30' E 012°05'0 0.0
2018-Apr-10 17:30N 66°30' E 012°05'0 0.0
2018-Apr-10 17:00N 66°30' E 012°05'0 0.0
2018-Apr-10 16:30N 66°30' E 012°05'0 0.0
2018-Apr-10 16:00N 66°30' E 012°05'0 0.0
2018-Apr-10 15:30N 66°30' E 012°05'2 4.7
2018-Apr-10 15:00N 66°28' E 012°01'2 4.4
2018-Apr-10 14:29N 66°27' E 011°56'1 1.2
2018-Apr-10 14:00N 66°26' E 011°56'  
Track history (hours):
 
Tides and Currents Weather Stations Pressure Air Temp Water Temp Dewpoint Dewpoint Depression Visibility Wind Speed Wind Dir Waves Ship Positions

Froegrunn

Last reported at 2018-Apr-12 04:27 UTC. Time now 2018-Jun-25 14:03 UTC.
Position N 66°23' E 012°02'.
Warning: this ship's position is months out of date.

Length 11 m.

Type: Fishing. MMSI: 257134420.

Date/timePositionNaut miles runAvg speedWind from/ knotsBaromVisibWave heightAir tempDewpointWater temp
2018-Apr-12 04:27N 66°23' E 012°02'3 5.9
2018-Apr-12 03:59N 66°26' E 012°04'3 6.0
2018-Apr-12 03:30N 66°29' E 012°05'1 1.6
2018-Apr-12 03:00N 66°30' E 012°05'0 0.0
2018-Apr-12 02:30N 66°30' E 012°05'0 0.0
2018-Apr-12 02:00N 66°30' E 012°05'0 0.0
2018-Apr-12 01:30N 66°30' E 012°05'0 0.0
2018-Apr-12 01:00N 66°30' E 012°05'0 0.0
2018-Apr-12 00:30N 66°30' E 012°05'0 0.0
2018-Apr-12 00:00N 66°30' E 012°05'0 0.0
2018-Apr-11 23:30N 66°30' E 012°05'0 0.0
2018-Apr-11 23:00N 66°30' E 012°05'0 0.0
2018-Apr-11 22:27N 66°30' E 012°05'0 0.0
2018-Apr-11 22:00N 66°30' E 012°05'0 0.0
2018-Apr-11 21:30N 66°30' E 012°05'0 0.0
2018-Apr-11 21:00N 66°30' E 012°05'0 0.0
2018-Apr-11 20:30N 66°30' E 012°05'0 0.0
2018-Apr-11 20:00N 66°30' E 012°05'0 0.0
2018-Apr-11 19:30N 66°30' E 012°05'0 0.0
2018-Apr-11 19:00N 66°30' E 012°05'0 0.0
2018-Apr-11 18:30N 66°30' E 012°05'0 0.0
2018-Apr-11 18:00N 66°30' E 012°05'0 0.0
2018-Apr-11 17:30N 66°30' E 012°05'0 0.0
2018-Apr-11 17:00N 66°30' E 012°05'0 0.0
2018-Apr-11 16:30N 66°30' E 012°05'0 0.0
2018-Apr-11 16:00N 66°30' E 012°05'0 0.0
2018-Apr-11 15:30N 66°30' E 012°05'0 0.0
2018-Apr-11 15:00N 66°30' E 012°05'0 0.0
2018-Apr-11 14:30N 66°30' E 012°05'0 0.0
2018-Apr-11 14:00N 66°30' E 012°05'0 0.2
2018-Apr-11 13:30N 66°30' E 012°05'0 0.0
2018-Apr-11 13:00N 66°30' E 012°05'2 4.6
2018-Apr-11 12:30N 66°28' E 012°01'2 3.6
2018-Apr-11 12:00N 66°27' E 011°57'1 2.7
2018-Apr-11 11:30N 66°28' E 011°54'1 1.5
2018-Apr-11 10:59N 66°28' E 011°53'0 0.2
2018-Apr-11 10:30N 66°28' E 011°52'1 1.7
2018-Apr-11 10:00N 66°28' E 011°55'0 0.9
2018-Apr-11 09:30N 66°29' E 011°55'3 4.8
2018-Apr-11 08:59N 66°26' E 011°57'0 0.1
2018-Apr-11 08:29N 66°26' E 011°56'1 3.0
2018-Apr-11 08:00N 66°26' E 011°53'1 0.3
2018-Apr-11 06:10N 66°26' E 011°52'1 2.9
2018-Apr-11 05:49N 66°27' E 011°53'1 2.4
2018-Apr-11 05:27N 66°28' E 011°54'0 1.0
2018-Apr-11 04:59N 66°27' E 011°54'0 0.7
2018-Apr-11 04:30N 66°27' E 011°54'1 2.5
2018-Apr-11 04:00N 66°27' E 011°58'3 6.1
2018-Apr-11 03:29N 66°29' E 012°04'1 1.6
2018-Apr-11 03:00N 66°30' E 012°05'0 0.0
2018-Apr-11 02:30N 66°30' E 012°05'0 0.0
2018-Apr-11 02:00N 66°30' E 012°05'0 0.0
2018-Apr-11 01:30N 66°30' E 012°05'0 0.0
2018-Apr-11 01:00N 66°30' E 012°05'0 0.0
2018-Apr-11 00:30N 66°30' E 012°05'0 0.0
2018-Apr-11 00:00N 66°30' E 012°05'0 0.0
2018-Apr-10 23:30N 66°30' E 012°05'0 0.0
2018-Apr-10 23:00N 66°30' E 012°05'0 0.0
2018-Apr-10 22:30N 66°30' E 012°05'0 0.0
2018-Apr-10 22:00N 66°30' E 012°05'0 0.0
2018-Apr-10 21:30N 66°30' E 012°05'0 0.0
2018-Apr-10 21:00N 66°30' E 012°05'0 0.0
2018-Apr-10 20:30N 66°30' E 012°05'0 0.0
2018-Apr-10 20:00N 66°30' E 012°05'0 0.0
2018-Apr-10 19:30N 66°30' E 012°05'0 0.0
2018-Apr-10 19:00N 66°30' E 012°05'0 0.0
2018-Apr-10 18:30N 66°30' E 012°05'0 0.0
2018-Apr-10 18:00N 66°30' E 012°05'0 0.0
2018-Apr-10 17:30N 66°30' E 012°05'0 0.0
2018-Apr-10 17:00N 66°30' E 012°05'0 0.0
2018-Apr-10 16:30N 66°30' E 012°05'0 0.0
2018-Apr-10 16:00N 66°30' E 012°05'0 0.0
2018-Apr-10 15:30N 66°30' E 012°05'2 4.7
2018-Apr-10 15:00N 66°28' E 012°01'2 4.4
2018-Apr-10 14:29N 66°27' E 011°56'1 1.2
2018-Apr-10 14:00N 66°26' E 011°56'  

Dump ship's entire track history